createdAt,value
2022-09-23T00:01:00.375Z,8.27
2022-09-23T00:03:28.828Z,8.26
2022-09-23T00:06:01.930Z,8.27
2022-09-23T00:08:30.108Z,8.29
2022-09-23T00:10:57.954Z,8.33
2022-09-23T00:13:25.488Z,8.38
2022-09-23T00:15:52.540Z,8.45
2022-09-23T00:18:20.847Z,8.52
2022-09-23T00:20:48.640Z,8.55
2022-09-23T00:23:15.457Z,8.56
2022-09-23T00:25:42.183Z,8.53
2022-09-23T00:28:08.990Z,8.56
2022-09-23T00:30:35.985Z,8.60
2022-09-23T00:33:02.847Z,8.64
2022-09-23T00:35:29.707Z,8.69
2022-09-23T00:37:56.629Z,8.74
2022-09-23T00:40:23.437Z,8.78
2022-09-23T00:42:52.412Z,8.82
2022-09-23T00:45:19.843Z,8.83
2022-09-23T00:47:50.797Z,8.83
2022-09-23T00:50:31.285Z,8.83
2022-09-23T00:53:01.395Z,8.84
2022-09-23T00:55:35.347Z,8.84
2022-09-23T00:58:06.180Z,8.82
2022-09-23T01:00:33.976Z,8.80
2022-09-23T01:03:01.710Z,8.78
2022-09-23T01:05:28.693Z,8.76
2022-09-23T01:07:57.631Z,8.75
2022-09-23T01:10:25.170Z,8.74
2022-09-23T01:13:16.292Z,8.76
2022-09-23T01:16:00.785Z,8.80
2022-09-23T01:18:27.741Z,8.84
2022-09-23T01:21:03.450Z,8.87
2022-09-23T01:23:47.618Z,8.88
2022-09-23T01:26:45.867Z,8.87
2022-09-23T01:29:24.038Z,8.88
2022-09-23T01:32:22.617Z,8.88
2022-09-23T01:34:54.183Z,8.91
2022-09-23T01:37:26.395Z,8.90
2022-09-23T01:40:18.249Z,8.90
2022-09-23T01:42:52.167Z,8.89
2022-09-23T01:45:24.330Z,8.86
2022-09-23T01:47:57.239Z,8.85
2022-09-23T01:50:47.335Z,8.84
2022-09-23T01:53:21.544Z,8.84
2022-09-23T01:55:52.049Z,8.88
2022-09-23T01:58:23.672Z,8.90
2022-09-23T02:00:58.343Z,8.92
2022-09-23T02:03:32.453Z,8.91
2022-09-23T02:06:12.727Z,8.89
2022-09-23T02:08:47.520Z,8.87
2022-09-23T02:11:16.076Z,8.84
2022-09-23T02:13:47.768Z,8.85
2022-09-23T02:16:25.645Z,8.86
2022-09-23T02:18:58.423Z,8.88
2022-09-23T02:21:34.085Z,8.90
2022-09-23T02:24:09.470Z,8.90
2022-09-23T02:26:40.518Z,8.85
2022-09-23T02:29:10.885Z,8.82
2022-09-23T02:31:42.719Z,8.78
2022-09-23T02:34:18.130Z,8.76
2022-09-23T02:37:01.964Z,8.75
2022-09-23T02:39:38.101Z,8.72
2022-09-23T02:42:10.297Z,8.66
2022-09-23T02:44:37.252Z,8.57
2022-09-23T02:47:04.934Z,8.48
2022-09-23T02:49:32.625Z,8.44
2022-09-23T02:52:04.909Z,8.39
2022-09-23T02:54:34.052Z,8.31
2022-09-23T02:57:05.980Z,8.23
2022-09-23T02:59:34.112Z,8.03
2022-09-23T03:02:05.156Z,7.75
2022-09-23T03:04:48.029Z,7.52
2022-09-23T03:07:37.388Z,7.40
2022-09-23T03:10:13.429Z,7.40
2022-09-23T03:13:06.174Z,7.38
2022-09-23T03:15:52.682Z,7.30
2022-09-23T03:18:29.269Z,7.14
2022-09-23T03:21:03.278Z,6.99
2022-09-23T03:23:36.534Z,6.86
2022-09-23T03:26:17.694Z,6.92
2022-09-23T03:28:46.157Z,6.95
2022-09-23T03:31:14.873Z,6.86
2022-09-23T03:33:48.183Z,6.80
2022-09-23T03:36:33.664Z,6.76
2022-09-23T03:39:10.033Z,6.62
2022-09-23T03:41:43.683Z,6.59
2022-09-23T03:44:11.584Z,6.61
2022-09-23T03:46:38.546Z,6.64
2022-09-23T03:49:14.867Z,6.64
2022-09-23T03:51:44.642Z,6.55
2022-09-23T03:54:12.717Z,6.43
2022-09-23T03:56:39.644Z,6.28
2022-09-23T03:59:06.656Z,6.30
2022-09-23T04:01:34.136Z,6.35
2022-09-23T04:04:01.340Z,6.40
2022-09-23T04:06:29.025Z,6.34
2022-09-23T04:08:55.989Z,6.27
2022-09-23T04:11:22.913Z,6.11
2022-09-23T04:13:50.942Z,6.06
2022-09-23T04:16:18.673Z,6.05
2022-09-23T04:18:45.610Z,6.15
2022-09-23T04:21:12.600Z,6.25
2022-09-23T04:23:39.428Z,6.20
2022-09-23T04:26:06.795Z,6.06
2022-09-23T04:28:34.446Z,5.92
2022-09-23T04:31:06.391Z,5.88
2022-09-23T04:33:34.150Z,5.89
2022-09-23T04:36:02.021Z,5.97
2022-09-23T04:38:28.973Z,6.05
2022-09-23T04:40:55.908Z,6.10
2022-09-23T04:43:23.609Z,6.06
2022-09-23T04:46:00.698Z,6.02
2022-09-23T04:48:29.266Z,5.96
2022-09-23T04:51:04.312Z,5.89
2022-09-23T04:53:32.371Z,5.93
2022-09-23T04:56:05.306Z,6.01
2022-09-23T04:58:33.460Z,6.13
2022-09-23T05:01:10.382Z,6.17
2022-09-23T05:03:37.873Z,6.11
2022-09-23T05:06:05.684Z,5.97
2022-09-23T05:08:32.483Z,5.85
2022-09-23T05:11:01.159Z,5.86
2022-09-23T05:13:28.574Z,5.95
2022-09-23T05:16:02.240Z,6.04
2022-09-23T05:18:33.711Z,6.13
2022-09-23T05:21:01.622Z,6.22
2022-09-23T05:23:29.895Z,6.26
2022-09-23T05:25:59.330Z,6.31
2022-09-23T05:28:30.126Z,6.31
2022-09-23T05:31:19.663Z,6.41
2022-09-23T05:33:52.171Z,6.56
2022-09-23T05:36:20.747Z,6.71
2022-09-23T05:38:50.338Z,6.84
2022-09-23T05:41:19.046Z,6.97
2022-09-23T05:43:47.888Z,7.09
2022-09-23T05:46:18.066Z,7.17
2022-09-23T05:48:46.454Z,7.28
2022-09-23T05:51:17.007Z,7.40
2022-09-23T05:53:46.642Z,7.55
2022-09-23T05:56:15.694Z,7.58
2022-09-23T05:58:42.942Z,7.63
2022-09-23T06:01:14.136Z,7.62
2022-09-23T06:03:41.297Z,7.64
2022-09-23T06:06:14.761Z,7.72
2022-09-23T06:08:42.425Z,7.91
2022-09-23T06:11:09.800Z,8.09
2022-09-23T06:13:38.361Z,8.27
2022-09-23T06:16:08.756Z,8.42
2022-09-23T06:18:38.111Z,8.47
2022-09-23T06:21:05.511Z,8.54
2022-09-23T06:23:33.133Z,8.61
2022-09-23T06:26:01.898Z,8.75
2022-09-23T06:28:32.330Z,8.90
2022-09-23T06:31:00.682Z,9.04
2022-09-23T06:33:36.035Z,9.13
2022-09-23T06:36:06.493Z,9.23
2022-09-23T06:38:34.933Z,9.30
2022-09-23T06:41:03.253Z,9.39
2022-09-23T06:43:30.811Z,9.54
2022-09-23T06:46:00.311Z,9.71
2022-09-23T06:48:28.924Z,9.89
2022-09-23T06:51:02.555Z,10.01
2022-09-23T06:53:33.133Z,10.04
2022-09-23T06:56:02.730Z,10.09
2022-09-23T06:58:31.794Z,10.05
2022-09-23T07:01:04.574Z,10.08
2022-09-23T07:03:32.765Z,10.19
2022-09-23T07:06:01.334Z,10.32
2022-09-23T07:08:30.819Z,10.50
2022-09-23T07:10:59.954Z,10.69
2022-09-23T07:13:28.180Z,10.82
2022-09-23T07:16:00.715Z,10.91
2022-09-23T07:18:35.619Z,10.91
2022-09-23T07:21:07.390Z,11.03
2022-09-23T07:23:34.285Z,11.18
2022-09-23T07:26:01.751Z,11.40
2022-09-23T07:28:29.842Z,11.57
2022-09-23T07:31:00.624Z,11.77
2022-09-23T07:33:33.323Z,11.91
2022-09-23T07:36:07.809Z,11.94
2022-09-23T07:38:35.153Z,11.96
2022-09-23T07:41:09.718Z,12.04
2022-09-23T07:43:37.909Z,12.24
2022-09-23T07:46:09.837Z,12.38
2022-09-23T07:48:38.743Z,12.54
2022-09-23T07:51:09.573Z,12.72
2022-09-23T07:53:37.986Z,12.86
2022-09-23T07:56:07.496Z,12.98
2022-09-23T07:58:35.588Z,13.05
2022-09-23T08:01:05.340Z,13.08
2022-09-23T08:03:32.412Z,13.12
2022-09-23T08:06:11.855Z,13.17
2022-09-23T08:08:43.830Z,13.25
2022-09-23T08:11:14.160Z,13.39
2022-09-23T08:13:41.915Z,13.50
2022-09-23T08:16:10.195Z,13.63
2022-09-23T08:18:37.379Z,13.71
2022-09-23T08:21:04.513Z,13.76
2022-09-23T08:23:33.850Z,13.85
2022-09-23T08:26:03.122Z,14.07
2022-09-23T08:28:30.328Z,14.61
2022-09-23T08:30:57.974Z,15.32
2022-09-23T08:33:25.015Z,15.98
2022-09-23T08:35:53.013Z,16.62
2022-09-23T08:38:20.654Z,17.30
2022-09-23T08:40:50.790Z,17.80
2022-09-23T08:43:27.326Z,18.26
2022-09-23T08:45:58.197Z,18.87
2022-09-23T08:48:30.931Z,19.37
2022-09-23T08:51:08.587Z,19.86
2022-09-23T08:53:38.173Z,20.06
2022-09-23T08:56:13.974Z,20.03
2022-09-23T08:59:01.117Z,19.88
2022-09-23T09:01:51.019Z,19.60
2022-09-23T09:04:19.332Z,19.35
2022-09-23T09:06:57.626Z,19.05
2022-09-23T09:09:45.465Z,19.24
2022-09-23T09:12:17.325Z,19.54
2022-09-23T09:15:02.655Z,19.84
2022-09-23T09:17:36.823Z,20.41
2022-09-23T09:20:19.079Z,20.93
2022-09-23T09:22:53.737Z,21.41
2022-09-23T09:25:25.821Z,21.90
2022-09-23T09:27:56.093Z,22.20
2022-09-23T09:30:25.641Z,22.33
2022-09-23T09:33:01.946Z,22.31
2022-09-23T09:35:37.967Z,22.37
2022-09-23T09:38:06.056Z,22.35
2022-09-23T09:40:35.736Z,22.26
2022-09-23T09:43:05.562Z,22.11
2022-09-23T09:45:58.107Z,21.68
2022-09-23T09:48:54.527Z,21.19
2022-09-23T09:51:24.190Z,20.82
2022-09-23T09:53:52.838Z,20.67
2022-09-23T09:56:28.024Z,20.65
2022-09-23T09:59:00.202Z,20.46
2022-09-23T10:01:31.962Z,20.11
2022-09-23T10:04:01.981Z,19.78
2022-09-23T10:06:32.646Z,19.79
2022-09-23T10:09:19.705Z,19.92
2022-09-23T10:12:18.786Z,19.98
2022-09-23T10:14:53.367Z,19.75
2022-09-23T10:17:24.617Z,19.63
2022-09-23T10:20:01.205Z,19.76
2022-09-23T10:22:33.589Z,19.86
2022-09-23T10:25:07.798Z,19.84
2022-09-23T10:27:36.648Z,19.90
2022-09-23T10:30:22.426Z,19.82
2022-09-23T10:32:50.833Z,19.62
2022-09-23T10:35:22.680Z,19.26
2022-09-23T10:37:50.966Z,18.71
2022-09-23T10:40:53.486Z,18.26
2022-09-23T10:43:40.137Z,18.07
2022-09-23T10:46:32.278Z,18.04
2022-09-23T10:49:18.734Z,18.13
2022-09-23T10:51:53.651Z,18.30
2022-09-23T10:54:30.206Z,18.33
2022-09-23T10:57:27.556Z,18.38
2022-09-23T11:00:09.231Z,18.29
2022-09-23T11:02:41.188Z,18.46
2022-09-23T11:05:25.126Z,18.64
2022-09-23T11:08:03.670Z,18.99
2022-09-23T11:10:56.072Z,19.14
2022-09-23T11:13:54.205Z,19.10
2022-09-23T11:16:39.650Z,18.85
2022-09-23T11:19:23.126Z,18.73
2022-09-23T11:22:01.505Z,18.64
2022-09-23T11:24:29.185Z,18.63
2022-09-23T11:27:20.142Z,18.50
2022-09-23T11:30:12.714Z,18.46
2022-09-23T11:33:05.302Z,18.65
2022-09-23T11:35:49.439Z,18.89
2022-09-23T11:38:28.476Z,19.06
2022-09-23T11:41:01.116Z,19.22
2022-09-23T11:43:34.661Z,19.25
2022-09-23T11:46:26.455Z,19.30
2022-09-23T11:49:15.616Z,19.22
2022-09-23T11:51:51.719Z,19.22
2022-09-23T11:54:21.675Z,19.34
2022-09-23T11:56:53.810Z,19.53
2022-09-23T11:59:39.905Z,19.76
2022-09-23T12:02:31.889Z,20.07
2022-09-23T12:05:13.936Z,20.63
2022-09-23T12:07:57.577Z,21.10
2022-09-23T12:10:37.741Z,21.31
2022-09-23T12:13:16.387Z,21.62
2022-09-23T12:15:51.286Z,21.90
2022-09-23T12:18:23.144Z,22.16
2022-09-23T12:21:27.442Z,22.58
2022-09-23T12:24:19.191Z,22.49
2022-09-23T12:26:52.800Z,22.16
2022-09-23T12:29:20.674Z,21.74
2022-09-23T12:31:49.933Z,21.25
2022-09-23T12:34:22.529Z,20.61
2022-09-23T12:36:49.681Z,19.98
2022-09-23T12:39:23.530Z,19.40
2022-09-23T12:41:59.375Z,18.84
2022-09-23T12:44:43.741Z,18.64
2022-09-23T12:47:31.117Z,18.76
2022-09-23T12:49:58.485Z,19.55
2022-09-23T12:52:35.102Z,20.46
2022-09-23T12:55:23.180Z,21.38
2022-09-23T12:57:50.280Z,22.08
2022-09-23T13:00:23.297Z,22.70
2022-09-23T13:03:10.731Z,23.35
2022-09-23T13:06:03.481Z,23.93
2022-09-23T13:08:31.123Z,23.90
2022-09-23T13:11:01.400Z,23.39
2022-09-23T13:13:35.939Z,22.82
2022-09-23T13:16:14.006Z,22.46
2022-09-23T13:18:57.964Z,21.94
2022-09-23T13:21:44.885Z,22.12
2022-09-23T13:24:13.381Z,22.20
2022-09-23T13:26:45.974Z,22.13
2022-09-23T13:29:19.392Z,22.56
2022-09-23T13:31:47.035Z,22.81
2022-09-23T13:34:20.020Z,22.49
2022-09-23T13:36:48.273Z,21.95
2022-09-23T13:39:22.417Z,21.45
2022-09-23T13:41:50.144Z,20.94
2022-09-23T13:44:20.242Z,20.48
2022-09-23T13:46:52.608Z,20.27
2022-09-23T13:49:24.757Z,20.39
2022-09-23T13:51:54.367Z,20.75
2022-09-23T13:54:52.654Z,21.38
2022-09-23T13:57:29.568Z,22.24
2022-09-23T14:00:16.145Z,23.01
2022-09-23T14:02:43.683Z,23.72
2022-09-23T14:05:12.680Z,23.72
2022-09-23T14:07:40.103Z,23.85
2022-09-23T14:10:08.225Z,24.18
2022-09-23T14:12:39.831Z,24.63
2022-09-23T14:15:14.343Z,24.85
2022-09-23T14:17:46.468Z,24.87
2022-09-23T14:20:17.284Z,25.05
2022-09-23T14:22:44.521Z,24.99
2022-09-23T14:25:14.779Z,24.78
2022-09-23T14:27:43.578Z,24.89
2022-09-23T14:30:15.729Z,25.19
2022-09-23T14:32:42.655Z,25.29
2022-09-23T14:35:22.437Z,25.47
2022-09-23T14:38:09.331Z,25.81
2022-09-23T14:40:50.890Z,25.94
2022-09-23T14:43:23.967Z,25.78
2022-09-23T14:45:55.284Z,25.95
2022-09-23T14:48:27.369Z,26.13
2022-09-23T14:50:58.442Z,26.14
2022-09-23T14:53:32.567Z,25.90
2022-09-23T14:56:07.289Z,25.38
2022-09-23T14:58:52.281Z,24.67
2022-09-23T15:01:37.954Z,23.78
2022-09-23T15:04:21.903Z,23.08
2022-09-23T15:06:48.937Z,22.51
2022-09-23T15:09:23.834Z,21.94
2022-09-23T15:11:54.079Z,21.36
2022-09-23T15:14:37.214Z,20.71
2022-09-23T15:17:13.733Z,20.10
2022-09-23T15:19:41.511Z,19.58
2022-09-23T15:22:10.083Z,19.28
2022-09-23T15:24:41.880Z,18.97
2022-09-23T15:27:22.913Z,18.68
2022-09-23T15:29:50.411Z,18.34
2022-09-23T15:32:17.323Z,18.00
2022-09-23T15:34:44.077Z,17.70
2022-09-23T15:37:12.674Z,17.40
2022-09-23T15:39:39.471Z,17.11
2022-09-23T15:42:10.364Z,16.85
2022-09-23T15:44:38.101Z,16.63
2022-09-23T15:47:05.175Z,16.42
2022-09-23T15:49:34.479Z,16.23
2022-09-23T15:52:02.366Z,16.01
2022-09-23T15:54:30.047Z,15.83
2022-09-23T15:56:56.891Z,15.67
2022-09-23T15:59:24.208Z,15.50
2022-09-23T16:01:52.844Z,15.33
2022-09-23T16:04:19.768Z,15.15
2022-09-23T16:06:48.440Z,14.96
2022-09-23T16:09:15.663Z,14.78
2022-09-23T16:11:47.307Z,14.61
2022-09-23T16:14:16.762Z,14.46
2022-09-23T16:16:45.532Z,14.31
2022-09-23T16:19:12.766Z,14.19
2022-09-23T16:21:41.674Z,14.08
2022-09-23T16:24:18.478Z,13.98
2022-09-23T16:26:47.553Z,13.86
2022-09-23T16:29:14.397Z,13.72
2022-09-23T16:31:41.376Z,13.59
2022-09-23T16:34:08.706Z,13.47
2022-09-23T16:36:40.730Z,13.32
2022-09-23T16:39:10.971Z,13.17
2022-09-23T16:41:37.929Z,13.05
2022-09-23T16:44:07.537Z,12.94
2022-09-23T16:46:35.044Z,12.84
2022-09-23T16:49:02.087Z,12.73
2022-09-23T16:51:31.349Z,12.61
2022-09-23T16:53:59.631Z,12.46
2022-09-23T16:56:29.117Z,12.28
2022-09-23T16:58:56.941Z,12.13
2022-09-23T17:01:42.525Z,11.94
2022-09-23T17:04:10.834Z,11.72
2022-09-23T17:06:49.053Z,11.54
2022-09-23T17:09:19.033Z,11.35
2022-09-23T17:11:47.919Z,11.18
2022-09-23T17:14:15.763Z,11.01
2022-09-23T17:16:43.611Z,10.85
2022-09-23T17:19:12.454Z,10.71
2022-09-23T17:21:39.542Z,10.57
2022-09-23T17:24:07.031Z,10.42
2022-09-23T17:26:34.604Z,10.27
2022-09-23T17:29:02.304Z,10.11
2022-09-23T17:31:30.880Z,9.95
2022-09-23T17:33:57.814Z,9.83
2022-09-23T17:36:24.665Z,9.71
2022-09-23T17:38:53.988Z,9.59
2022-09-23T17:41:21.428Z,9.46
2022-09-23T17:43:53.754Z,9.35
2022-09-23T17:46:20.673Z,9.24
2022-09-23T17:48:47.591Z,9.10
2022-09-23T17:51:18.004Z,8.97
2022-09-23T17:53:47.039Z,8.84
2022-09-23T17:56:16.490Z,8.75
2022-09-23T17:58:44.896Z,8.65
2022-09-23T18:01:14.994Z,8.55
2022-09-23T18:03:43.714Z,8.43
2022-09-23T18:06:14.100Z,8.31
2022-09-23T18:08:43.556Z,8.20
2022-09-23T18:11:12.294Z,8.07
2022-09-23T18:13:39.239Z,7.97
2022-09-23T18:16:06.570Z,7.88
2022-09-23T18:18:33.441Z,7.82
2022-09-23T18:21:01.994Z,7.77
2022-09-23T18:23:29.284Z,7.72
2022-09-23T18:25:56.980Z,7.68
2022-09-23T18:28:24.219Z,7.64
2022-09-23T18:30:54.167Z,7.56
2022-09-23T18:33:22.223Z,7.51
2022-09-23T18:35:49.721Z,7.45
2022-09-23T18:38:16.698Z,7.39
2022-09-23T18:40:55.799Z,7.33
2022-09-23T18:43:25.794Z,7.26
2022-09-23T18:46:02.994Z,7.18
2022-09-23T18:48:47.394Z,7.10
2022-09-23T18:51:16.748Z,7.01
2022-09-23T18:53:44.579Z,6.90
2022-09-23T18:56:15.039Z,6.81
2022-09-23T18:58:46.810Z,6.68
2022-09-23T19:01:15.269Z,6.68
2022-09-23T19:03:43.013Z,6.68
2022-09-23T19:06:12.416Z,6.66
2022-09-23T19:08:39.976Z,6.67
2022-09-23T19:11:09.624Z,6.67
2022-09-23T19:13:36.620Z,6.66
2022-09-23T19:16:07.152Z,6.64
2022-09-23T19:18:34.362Z,6.60
2022-09-23T19:21:06.843Z,6.58
2022-09-23T19:23:35.316Z,6.56
2022-09-23T19:26:04.676Z,6.54
2022-09-23T19:28:32.267Z,6.50
2022-09-23T19:31:10.845Z,6.43
2022-09-23T19:33:38.325Z,6.38
2022-09-23T19:36:06.397Z,6.29
2022-09-23T19:38:33.278Z,6.22
2022-09-23T19:41:04.097Z,6.16
2022-09-23T19:43:30.876Z,6.13
2022-09-23T19:46:13.787Z,6.09
2022-09-23T19:48:56.628Z,6.04
2022-09-23T19:51:24.189Z,5.95
2022-09-23T19:53:51.022Z,5.88
2022-09-23T19:56:18.288Z,5.80
2022-09-23T19:58:47.485Z,5.75
2022-09-23T20:01:16.439Z,5.72
2022-09-23T20:03:44.715Z,5.69
2022-09-23T20:06:11.595Z,5.68
2022-09-23T20:08:39.462Z,5.64
2022-09-23T20:11:11.390Z,5.47
2022-09-23T20:13:40.215Z,5.27
2022-09-23T20:16:09.924Z,5.13
2022-09-23T20:18:38.651Z,4.94
2022-09-23T20:21:07.212Z,4.71
2022-09-23T20:23:34.534Z,4.53
2022-09-23T20:26:18.602Z,4.40
2022-09-23T20:28:45.866Z,4.37
2022-09-23T20:31:13.442Z,4.31
2022-09-23T20:33:41.715Z,4.21
2022-09-23T20:36:10.022Z,4.16
2022-09-23T20:38:37.230Z,4.18
2022-09-23T20:41:05.305Z,4.23
2022-09-23T20:43:34.643Z,4.26
2022-09-23T20:46:03.335Z,4.34
2022-09-23T20:48:31.016Z,4.41
2022-09-23T20:51:02.565Z,4.41
2022-09-23T20:53:29.900Z,4.31
2022-09-23T20:55:58.343Z,4.27
2022-09-23T20:58:30.931Z,4.22
2022-09-23T21:01:02.924Z,4.15
2022-09-23T21:03:31.909Z,4.08
2022-09-23T21:06:01.762Z,4.04
2022-09-23T21:08:28.574Z,4.08
2022-09-23T21:10:57.454Z,4.13
2022-09-23T21:13:25.141Z,4.13
2022-09-23T21:15:52.032Z,4.04
2022-09-23T21:18:22.421Z,3.97
2022-09-23T21:20:57.992Z,3.97
2022-09-23T21:23:27.805Z,3.99
2022-09-23T21:26:02.902Z,4.02
2022-09-23T21:28:32.171Z,4.01
2022-09-23T21:31:01.417Z,3.95
2022-09-23T21:33:28.776Z,3.87
2022-09-23T21:35:56.791Z,3.75
2022-09-23T21:38:24.781Z,3.62
2022-09-23T21:41:00.231Z,3.56
2022-09-23T21:43:29.633Z,3.57
2022-09-23T21:45:59.636Z,3.61
2022-09-23T21:48:28.292Z,3.58
2022-09-23T21:50:57.665Z,3.43
2022-09-23T21:53:25.178Z,3.28
2022-09-23T21:55:52.250Z,3.26
2022-09-23T21:58:19.173Z,3.28
2022-09-23T22:00:46.019Z,3.28
2022-09-23T22:03:12.890Z,3.23
2022-09-23T22:05:43.362Z,3.21
2022-09-23T22:08:10.657Z,3.23
2022-09-23T22:10:37.858Z,3.24
2022-09-23T22:13:12.021Z,3.25
2022-09-23T22:15:39.778Z,3.26
2022-09-23T22:18:06.667Z,3.31
2022-09-23T22:20:34.405Z,3.38
2022-09-23T22:23:01.607Z,3.38
2022-09-23T22:25:29.033Z,3.28
2022-09-23T22:28:11.423Z,3.16
2022-09-23T22:30:54.676Z,3.08
2022-09-23T22:33:22.140Z,3.01
2022-09-23T22:35:48.884Z,2.92
2022-09-23T22:38:16.488Z,2.84
2022-09-23T22:40:43.666Z,2.84
2022-09-23T22:43:10.530Z,2.90
2022-09-23T22:45:39.799Z,2.94
2022-09-23T22:48:06.673Z,2.87
2022-09-23T22:50:33.537Z,2.71
2022-09-23T22:53:02.056Z,2.62
2022-09-23T22:55:28.906Z,2.55
2022-09-23T22:57:55.763Z,2.47
2022-09-23T23:00:22.644Z,2.42
2022-09-23T23:02:49.472Z,2.43
2022-09-23T23:05:16.344Z,2.50
2022-09-23T23:07:43.161Z,2.58
2022-09-23T23:10:10.456Z,2.58
2022-09-23T23:12:37.715Z,2.50
2022-09-23T23:15:04.859Z,2.40
2022-09-23T23:17:31.636Z,2.36
2022-09-23T23:19:58.548Z,2.36
2022-09-23T23:22:28.531Z,2.36
2022-09-23T23:24:55.265Z,2.34
2022-09-23T23:27:22.026Z,2.36
2022-09-23T23:29:48.894Z,2.42
2022-09-23T23:32:16.928Z,2.42
2022-09-23T23:34:43.723Z,2.38
2022-09-23T23:37:10.458Z,2.36
2022-09-23T23:39:37.286Z,2.33
2022-09-23T23:42:04.956Z,2.37
2022-09-23T23:44:34.580Z,2.36
2022-09-23T23:47:01.957Z,2.36
2022-09-23T23:49:28.819Z,2.42
2022-09-23T23:51:55.727Z,2.50
2022-09-23T23:54:22.568Z,2.53
2022-09-23T23:56:49.516Z,2.55
2022-09-23T23:59:16.331Z,2.60
